sensor_id;sensor_type;location;lat;lon;timestamp;P1;durP1;ratioP1;P2;durP2;ratioP2
59263;SDS011;45030;42.720;23.344;2023-06-22T00:01:14;7.82;;;5.38;;
59263;SDS011;45030;42.720;23.344;2023-06-22T00:03:39;9.75;;;5.65;;
59263;SDS011;45030;42.720;23.344;2023-06-22T00:06:05;10.05;;;6.35;;
59263;SDS011;45030;42.720;23.344;2023-06-22T00:08:30;10.27;;;5.40;;
59263;SDS011;45030;42.720;23.344;2023-06-22T00:10:55;8.35;;;5.30;;
59263;SDS011;45030;42.720;23.344;2023-06-22T00:13:20;10.15;;;5.07;;
59263;SDS011;45030;42.720;23.344;2023-06-22T00:15:46;9.23;;;5.13;;
59263;SDS011;45030;42.720;23.344;2023-06-22T00:18:11;10.10;;;5.85;;
59263;SDS011;45030;42.720;23.344;2023-06-22T00:20:38;6.38;;;4.72;;
59263;SDS011;45030;42.720;23.344;2023-06-22T00:23:04;9.02;;;5.43;;
59263;SDS011;45030;42.720;23.344;2023-06-22T00:25:33;9.57;;;5.80;;
59263;SDS011;45030;42.720;23.344;2023-06-22T00:27:58;10.32;;;5.22;;
59263;SDS011;45030;42.720;23.344;2023-06-22T00:30:23;8.35;;;5.65;;
59263;SDS011;45030;42.720;23.344;2023-06-22T00:32:49;10.23;;;4.72;;
59263;SDS011;45030;42.720;23.344;2023-06-22T00:35:14;8.27;;;5.20;;
59263;SDS011;45030;42.720;23.344;2023-06-22T00:37:39;8.38;;;4.80;;
59263;SDS011;45030;42.720;23.344;2023-06-22T00:40:08;9.63;;;4.80;;
59263;SDS011;45030;42.720;23.344;2023-06-22T00:42:33;8.45;;;4.85;;
59263;SDS011;45030;42.720;23.344;2023-06-22T00:44:59;8.27;;;4.37;;
59263;SDS011;45030;42.720;23.344;2023-06-22T00:47:24;6.78;;;4.68;;
59263;SDS011;45030;42.720;23.344;2023-06-22T00:49:49;8.02;;;4.70;;
59263;SDS011;45030;42.720;23.344;2023-06-22T00:52:18;7.88;;;4.97;;
59263;SDS011;45030;42.720;23.344;2023-06-22T00:54:46;8.38;;;5.32;;
59263;SDS011;45030;42.720;23.344;2023-06-22T00:57:14;8.50;;;5.20;;
59263;SDS011;45030;42.720;23.344;2023-06-22T00:59:42;6.93;;;4.30;;
59263;SDS011;45030;42.720;23.344;2023-06-22T01:02:07;9.55;;;4.90;;
59263;SDS011;45030;42.720;23.344;2023-06-22T01:04:36;10.50;;;5.55;;
59263;SDS011;45030;42.720;23.344;2023-06-22T01:07:13;8.52;;;5.05;;
59263;SDS011;45030;42.720;23.344;2023-06-22T01:10:14;8.98;;;5.38;;
59263;SDS011;45030;42.720;23.344;2023-06-22T01:12:33;6.65;;;4.75;;
59263;SDS011;45030;42.720;23.344;2023-06-22T01:15:10;6.75;;;5.20;;
59263;SDS011;45030;42.720;23.344;2023-06-22T01:17:36;8.55;;;5.43;;
59263;SDS011;45030;42.720;23.344;2023-06-22T01:20:05;7.60;;;5.10;;
59263;SDS011;45030;42.720;23.344;2023-06-22T01:22:33;8.80;;;5.65;;
59263;SDS011;45030;42.720;23.344;2023-06-22T01:30:06;7.18;;;4.50;;
59263;SDS011;45030;42.720;23.344;2023-06-22T01:32:35;9.70;;;4.85;;
59263;SDS011;45030;42.720;23.344;2023-06-22T01:35:03;9.23;;;5.38;;
59263;SDS011;45030;42.720;23.344;2023-06-22T01:37:29;8.30;;;5.35;;
59263;SDS011;45030;42.720;23.344;2023-06-22T01:39:56;12.02;;;5.97;;
59263;SDS011;45030;42.720;23.344;2023-06-22T01:42:23;8.48;;;5.35;;
59263;SDS011;45030;42.720;23.344;2023-06-22T01:44:49;9.88;;;4.78;;
59263;SDS011;45030;42.720;23.344;2023-06-22T01:47:14;10.73;;;6.05;;
59263;SDS011;45030;42.720;23.344;2023-06-22T01:49:40;9.35;;;5.20;;
59263;SDS011;45030;42.720;23.344;2023-06-22T01:52:06;9.70;;;5.32;;
59263;SDS011;45030;42.720;23.344;2023-06-22T01:54:31;9.02;;;5.13;;
59263;SDS011;45030;42.720;23.344;2023-06-22T01:56:57;9.52;;;5.63;;
59263;SDS011;45030;42.720;23.344;2023-06-22T02:01:50;9.07;;;4.33;;
59263;SDS011;45030;42.720;23.344;2023-06-22T02:04:20;9.80;;;6.07;;
59263;SDS011;45030;42.720;23.344;2023-06-22T02:06:46;9.57;;;5.30;;
59263;SDS011;45030;42.720;23.344;2023-06-22T02:09:14;9.77;;;4.93;;
59263;SDS011;45030;42.720;23.344;2023-06-22T02:11:41;10.75;;;5.50;;
59263;SDS011;45030;42.720;23.344;2023-06-22T02:14:07;13.43;;;6.28;;
59263;SDS011;45030;42.720;23.344;2023-06-22T02:16:33;11.27;;;6.80;;
59263;SDS011;45030;42.720;23.344;2023-06-22T02:18:58;9.77;;;5.35;;
59263;SDS011;45030;42.720;23.344;2023-06-22T02:21:28;8.25;;;5.03;;
59263;SDS011;45030;42.720;23.344;2023-06-22T02:23:54;8.95;;;5.00;;
59263;SDS011;45030;42.720;23.344;2023-06-22T02:26:19;8.73;;;5.28;;
59263;SDS011;45030;42.720;23.344;2023-06-22T02:28:44;11.02;;;5.60;;
59263;SDS011;45030;42.720;23.344;2023-06-22T02:31:11;9.25;;;5.25;;
59263;SDS011;45030;42.720;23.344;2023-06-22T02:33:36;9.60;;;5.97;;
59263;SDS011;45030;42.720;23.344;2023-06-22T02:36:01;10.48;;;5.45;;
59263;SDS011;45030;42.720;23.344;2023-06-22T02:38:30;9.02;;;5.60;;
59263;SDS011;45030;42.720;23.344;2023-06-22T02:40:59;10.88;;;5.10;;
59263;SDS011;45030;42.720;23.344;2023-06-22T02:43:25;7.47;;;4.90;;
59263;SDS011;45030;42.720;23.344;2023-06-22T02:45:50;10.07;;;5.13;;
59263;SDS011;45030;42.720;23.344;2023-06-22T02:48:15;9.90;;;5.85;;
59263;SDS011;45030;42.720;23.344;2023-06-22T02:50:40;11.70;;;6.13;;
59263;SDS011;45030;42.720;23.344;2023-06-22T02:53:06;10.15;;;6.22;;
59263;SDS011;45030;42.720;23.344;2023-06-22T02:55:31;9.43;;;6.78;;
59263;SDS011;45030;42.720;23.344;2023-06-22T02:57:56;11.38;;;6.95;;
59263;SDS011;45030;42.720;23.344;2023-06-22T03:00:22;7.53;;;5.18;;
59263;SDS011;45030;42.720;23.344;2023-06-22T03:02:48;10.63;;;5.90;;
59263;SDS011;45030;42.720;23.344;2023-06-22T03:05:13;12.10;;;6.20;;
59263;SDS011;45030;42.720;23.344;2023-06-22T03:07:41;10.95;;;6.07;;
59263;SDS011;45030;42.720;23.344;2023-06-22T03:10:10;9.70;;;6.45;;
59263;SDS011;45030;42.720;23.344;2023-06-22T03:12:36;10.65;;;5.28;;
59263;SDS011;45030;42.720;23.344;2023-06-22T03:15:02;9.93;;;5.38;;
59263;SDS011;45030;42.720;23.344;2023-06-22T03:17:27;9.63;;;5.57;;
59263;SDS011;45030;42.720;23.344;2023-06-22T03:19:52;14.20;;;6.68;;
59263;SDS011;45030;42.720;23.344;2023-06-22T03:22:17;11.77;;;6.28;;
59263;SDS011;45030;42.720;23.344;2023-06-22T03:24:43;9.38;;;5.78;;
59263;SDS011;45030;42.720;23.344;2023-06-22T03:27:08;9.05;;;5.50;;
59263;SDS011;45030;42.720;23.344;2023-06-22T03:29:33;9.73;;;5.85;;
59263;SDS011;45030;42.720;23.344;2023-06-22T03:31:59;9.27;;;5.68;;
59263;SDS011;45030;42.720;23.344;2023-06-22T03:34:24;11.40;;;6.22;;
59263;SDS011;45030;42.720;23.344;2023-06-22T03:36:49;9.13;;;5.65;;
59263;SDS011;45030;42.720;23.344;2023-06-22T03:39:14;13.27;;;6.55;;
59263;SDS011;45030;42.720;23.344;2023-06-22T03:41:40;8.23;;;5.60;;
59263;SDS011;45030;42.720;23.344;2023-06-22T03:44:05;9.83;;;5.50;;
59263;SDS011;45030;42.720;23.344;2023-06-22T03:46:30;10.68;;;5.88;;
59263;SDS011;45030;42.720;23.344;2023-06-22T03:48:55;9.55;;;5.88;;
59263;SDS011;45030;42.720;23.344;2023-06-22T03:51:21;12.57;;;7.28;;
59263;SDS011;45030;42.720;23.344;2023-06-22T03:53:47;10.88;;;7.00;;
59263;SDS011;45030;42.720;23.344;2023-06-22T03:56:13;7.70;;;4.70;;
59263;SDS011;45030;42.720;23.344;2023-06-22T03:58:38;9.93;;;5.30;;
59263;SDS011;45030;42.720;23.344;2023-06-22T04:01:07;7.75;;;4.47;;
59263;SDS011;45030;42.720;23.344;2023-06-22T04:03:36;10.75;;;5.38;;
59263;SDS011;45030;42.720;23.344;2023-06-22T04:06:01;10.18;;;5.60;;
59263;SDS011;45030;42.720;23.344;2023-06-22T04:08:26;10.20;;;5.60;;
59263;SDS011;45030;42.720;23.344;2023-06-22T04:10:52;8.20;;;4.72;;
59263;SDS011;45030;42.720;23.344;2023-06-22T04:13:17;8.90;;;4.93;;
59263;SDS011;45030;42.720;23.344;2023-06-22T04:15:42;10.05;;;4.80;;
59263;SDS011;45030;42.720;23.344;2023-06-22T04:18:07;12.93;;;5.63;;
59263;SDS011;45030;42.720;23.344;2023-06-22T04:20:32;10.30;;;6.10;;
59263;SDS011;45030;42.720;23.344;2023-06-22T04:22:58;8.82;;;4.90;;
59263;SDS011;45030;42.720;23.344;2023-06-22T04:25:23;9.98;;;5.18;;
59263;SDS011;45030;42.720;23.344;2023-06-22T04:27:48;9.38;;;5.88;;
59263;SDS011;45030;42.720;23.344;2023-06-22T04:30:14;9.07;;;5.95;;
59263;SDS011;45030;42.720;23.344;2023-06-22T04:32:43;13.20;;;7.13;;
59263;SDS011;45030;42.720;23.344;2023-06-22T04:35:10;9.80;;;5.53;;
59263;SDS011;45030;42.720;23.344;2023-06-22T04:37:35;9.77;;;5.57;;
59263;SDS011;45030;42.720;23.344;2023-06-22T04:40:01;9.55;;;5.32;;
59263;SDS011;45030;42.720;23.344;2023-06-22T04:42:26;9.97;;;5.70;;
59263;SDS011;45030;42.720;23.344;2023-06-22T04:44:52;12.00;;;6.13;;
59263;SDS011;45030;42.720;23.344;2023-06-22T04:47:17;12.25;;;6.47;;
59263;SDS011;45030;42.720;23.344;2023-06-22T04:49:42;10.73;;;6.47;;
59263;SDS011;45030;42.720;23.344;2023-06-22T04:52:09;14.30;;;5.45;;
59263;SDS011;45030;42.720;23.344;2023-06-22T04:54:35;6.70;;;4.97;;
59263;SDS011;45030;42.720;23.344;2023-06-22T04:57:02;10.65;;;4.70;;
59263;SDS011;45030;42.720;23.344;2023-06-22T04:59:28;9.25;;;5.78;;
59263;SDS011;45030;42.720;23.344;2023-06-22T05:01:55;7.95;;;5.07;;
59263;SDS011;45030;42.720;23.344;2023-06-22T05:04:21;8.65;;;5.50;;
59263;SDS011;45030;42.720;23.344;2023-06-22T05:06:48;9.43;;;5.72;;
59263;SDS011;45030;42.720;23.344;2023-06-22T05:09:13;10.57;;;5.47;;
59263;SDS011;45030;42.720;23.344;2023-06-22T05:11:38;8.67;;;4.63;;
59263;SDS011;45030;42.720;23.344;2023-06-22T05:14:03;10.25;;;5.72;;
59263;SDS011;45030;42.720;23.344;2023-06-22T05:16:29;8.93;;;5.60;;
59263;SDS011;45030;42.720;23.344;2023-06-22T05:18:54;8.45;;;5.22;;
59263;SDS011;45030;42.720;23.344;2023-06-22T05:21:21;6.93;;;4.88;;
59263;SDS011;45030;42.720;23.344;2023-06-22T05:23:46;10.50;;;5.07;;
59263;SDS011;45030;42.720;23.344;2023-06-22T05:26:12;6.85;;;5.03;;
59263;SDS011;45030;42.720;23.344;2023-06-22T05:28:37;10.93;;;5.25;;
59263;SDS011;45030;42.720;23.344;2023-06-22T05:31:02;10.52;;;5.78;;
59263;SDS011;45030;42.720;23.344;2023-06-22T05:33:29;9.95;;;5.78;;
59263;SDS011;45030;42.720;23.344;2023-06-22T05:35:54;10.10;;;5.68;;
59263;SDS011;45030;42.720;23.344;2023-06-22T05:38:19;9.88;;;5.50;;
59263;SDS011;45030;42.720;23.344;2023-06-22T05:40:44;8.40;;;5.07;;
59263;SDS011;45030;42.720;23.344;2023-06-22T05:43:10;8.50;;;5.20;;
59263;SDS011;45030;42.720;23.344;2023-06-22T05:45:35;11.83;;;5.40;;
59263;SDS011;45030;42.720;23.344;2023-06-22T05:48:00;11.17;;;7.03;;
59263;SDS011;45030;42.720;23.344;2023-06-22T05:50:26;14.02;;;6.80;;
59263;SDS011;45030;42.720;23.344;2023-06-22T05:52:51;13.00;;;8.10;;
59263;SDS011;45030;42.720;23.344;2023-06-22T05:55:16;10.45;;;8.18;;
59263;SDS011;45030;42.720;23.344;2023-06-22T05:57:43;10.48;;;6.68;;
59263;SDS011;45030;42.720;23.344;2023-06-22T06:00:09;8.93;;;5.78;;
59263;SDS011;45030;42.720;23.344;2023-06-22T06:02:36;8.20;;;5.60;;
59263;SDS011;45030;42.720;23.344;2023-06-22T06:05:01;8.40;;;5.53;;
59263;SDS011;45030;42.720;23.344;2023-06-22T06:07:28;10.38;;;7.00;;
59263;SDS011;45030;42.720;23.344;2023-06-22T06:09:53;12.43;;;6.65;;
59263;SDS011;45030;42.720;23.344;2023-06-22T06:12:18;8.77;;;5.77;;
59263;SDS011;45030;42.720;23.344;2023-06-22T06:14:44;9.50;;;5.80;;
59263;SDS011;45030;42.720;23.344;2023-06-22T06:17:09;8.70;;;6.15;;
59263;SDS011;45030;42.720;23.344;2023-06-22T06:19:34;13.30;;;6.40;;
59263;SDS011;45030;42.720;23.344;2023-06-22T06:21:59;13.97;;;7.20;;
59263;SDS011;45030;42.720;23.344;2023-06-22T06:24:25;8.80;;;6.05;;
59263;SDS011;45030;42.720;23.344;2023-06-22T06:26:50;9.85;;;6.03;;
59263;SDS011;45030;42.720;23.344;2023-06-22T06:29:15;8.60;;;5.90;;
59263;SDS011;45030;42.720;23.344;2023-06-22T06:31:41;8.15;;;5.47;;
59263;SDS011;45030;42.720;23.344;2023-06-22T06:34:06;7.57;;;5.63;;
59263;SDS011;45030;42.720;23.344;2023-06-22T06:36:32;10.98;;;6.45;;
59263;SDS011;45030;42.720;23.344;2023-06-22T06:38:57;7.27;;;5.27;;
59263;SDS011;45030;42.720;23.344;2023-06-22T06:41:22;7.70;;;5.72;;
59263;SDS011;45030;42.720;23.344;2023-06-22T06:43:48;9.02;;;5.90;;
59263;SDS011;45030;42.720;23.344;2023-06-22T06:46:13;9.15;;;5.40;;
59263;SDS011;45030;42.720;23.344;2023-06-22T06:48:38;9.40;;;5.40;;
59263;SDS011;45030;42.720;23.344;2023-06-22T06:51:04;8.57;;;6.05;;
59263;SDS011;45030;42.720;23.344;2023-06-22T06:53:30;9.10;;;5.28;;
59263;SDS011;45030;42.720;23.344;2023-06-22T06:55:55;9.27;;;6.22;;
59263;SDS011;45030;42.720;23.344;2023-06-22T06:58:21;8.88;;;5.28;;
59263;SDS011;45030;42.720;23.344;2023-06-22T07:00:48;9.13;;;5.60;;
59263;SDS011;45030;42.720;23.344;2023-06-22T07:03:13;8.68;;;5.15;;
59263;SDS011;45030;42.720;23.344;2023-06-22T07:05:39;10.75;;;6.13;;
59263;SDS011;45030;42.720;23.344;2023-06-22T07:08:04;11.82;;;5.70;;
59263;SDS011;45030;42.720;23.344;2023-06-22T07:10:29;8.82;;;6.15;;
59263;SDS011;45030;42.720;23.344;2023-06-22T07:12:54;11.43;;;6.70;;
59263;SDS011;45030;42.720;23.344;2023-06-22T07:15:20;8.82;;;6.40;;
59263;SDS011;45030;42.720;23.344;2023-06-22T07:17:45;9.47;;;5.33;;
59263;SDS011;45030;42.720;23.344;2023-06-22T07:20:10;9.68;;;5.47;;
59263;SDS011;45030;42.720;23.344;2023-06-22T07:22:37;10.75;;;5.55;;
59263;SDS011;45030;42.720;23.344;2023-06-22T07:25:03;7.30;;;5.40;;
59263;SDS011;45030;42.720;23.344;2023-06-22T07:27:43;10.25;;;5.50;;
59263;SDS011;45030;42.720;23.344;2023-06-22T07:30:10;10.50;;;5.60;;
59263;SDS011;45030;42.720;23.344;2023-06-22T07:32:36;10.20;;;5.40;;
59263;SDS011;45030;42.720;23.344;2023-06-22T07:35:01;8.65;;;5.22;;
59263;SDS011;45030;42.720;23.344;2023-06-22T07:37:27;9.77;;;6.10;;
59263;SDS011;45030;42.720;23.344;2023-06-22T07:39:53;9.57;;;5.50;;
59263;SDS011;45030;42.720;23.344;2023-06-22T07:42:23;10.75;;;4.97;;
59263;SDS011;45030;42.720;23.344;2023-06-22T07:44:48;7.67;;;6.00;;
59263;SDS011;45030;42.720;23.344;2023-06-22T07:47:13;9.83;;;5.67;;
59263;SDS011;45030;42.720;23.344;2023-06-22T07:49:38;6.87;;;5.27;;
59263;SDS011;45030;42.720;23.344;2023-06-22T07:52:04;10.25;;;6.07;;
59263;SDS011;45030;42.720;23.344;2023-06-22T07:54:30;8.93;;;6.35;;
59263;SDS011;45030;42.720;23.344;2023-06-22T07:56:55;7.37;;;5.57;;
59263;SDS011;45030;42.720;23.344;2023-06-22T07:59:20;8.53;;;5.73;;
59263;SDS011;45030;42.720;23.344;2023-06-22T08:01:45;12.57;;;6.63;;
59263;SDS011;45030;42.720;23.344;2023-06-22T08:04:14;8.38;;;5.93;;
59263;SDS011;45030;42.720;23.344;2023-06-22T08:06:39;6.87;;;5.83;;
59263;SDS011;45030;42.720;23.344;2023-06-22T08:09:04;7.60;;;5.90;;
59263;SDS011;45030;42.720;23.344;2023-06-22T08:11:29;9.67;;;5.60;;
59263;SDS011;45030;42.720;23.344;2023-06-22T08:13:55;8.17;;;5.80;;
59263;SDS011;45030;42.720;23.344;2023-06-22T08:16:20;9.90;;;6.50;;
59263;SDS011;45030;42.720;23.344;2023-06-22T08:18:46;8.20;;;5.77;;
59263;SDS011;45030;42.720;23.344;2023-06-22T08:21:11;10.77;;;6.67;;
59263;SDS011;45030;42.720;23.344;2023-06-22T08:23:36;9.93;;;5.45;;
59263;SDS011;45030;42.720;23.344;2023-06-22T08:26:01;7.57;;;5.60;;
59263;SDS011;45030;42.720;23.344;2023-06-22T08:28:27;8.57;;;5.22;;
59263;SDS011;45030;42.720;23.344;2023-06-22T08:30:52;9.33;;;5.77;;
59263;SDS011;45030;42.720;23.344;2023-06-22T08:33:17;8.27;;;5.57;;
59263;SDS011;45030;42.720;23.344;2023-06-22T08:35:42;8.57;;;6.23;;
59263;SDS011;45030;42.720;23.344;2023-06-22T08:38:08;8.98;;;5.55;;
59263;SDS011;45030;42.720;23.344;2023-06-22T08:40:33;6.90;;;5.78;;
59263;SDS011;45030;42.720;23.344;2023-06-22T08:42:59;7.93;;;5.15;;
59263;SDS011;45030;42.720;23.344;2023-06-22T08:45:24;7.43;;;5.67;;
59263;SDS011;45030;42.720;23.344;2023-06-22T08:47:49;7.27;;;6.10;;
59263;SDS011;45030;42.720;23.344;2023-06-22T08:50:14;9.53;;;6.10;;
59263;SDS011;45030;42.720;23.344;2023-06-22T08:52:40;11.68;;;5.90;;
59263;SDS011;45030;42.720;23.344;2023-06-22T08:55:08;8.00;;;5.35;;
59263;SDS011;45030;42.720;23.344;2023-06-22T08:57:34;7.63;;;4.95;;
59263;SDS011;45030;42.720;23.344;2023-06-22T08:59:59;9.00;;;5.23;;
59263;SDS011;45030;42.720;23.344;2023-06-22T09:02:25;8.57;;;4.80;;
59263;SDS011;45030;42.720;23.344;2023-06-22T09:04:50;6.85;;;4.72;;
59263;SDS011;45030;42.720;23.344;2023-06-22T09:07:23;9.40;;;5.75;;
59263;SDS011;45030;42.720;23.344;2023-06-22T09:09:49;5.97;;;4.32;;
59263;SDS011;45030;42.720;23.344;2023-06-22T09:12:15;7.50;;;4.93;;
59263;SDS011;45030;42.720;23.344;2023-06-22T09:14:40;9.67;;;4.80;;
59263;SDS011;45030;42.720;23.344;2023-06-22T09:17:05;6.93;;;4.97;;
59263;SDS011;45030;42.720;23.344;2023-06-22T09:19:30;7.95;;;5.35;;
59263;SDS011;45030;42.720;23.344;2023-06-22T09:21:56;6.87;;;4.87;;
59263;SDS011;45030;42.720;23.344;2023-06-22T09:24:21;7.00;;;4.50;;
59263;SDS011;45030;42.720;23.344;2023-06-22T09:27:05;7.15;;;5.43;;
59263;SDS011;45030;42.720;23.344;2023-06-22T09:29:30;9.95;;;4.95;;
59263;SDS011;45030;42.720;23.344;2023-06-22T09:31:58;6.18;;;4.88;;
59263;SDS011;45030;42.720;23.344;2023-06-22T09:34:23;6.32;;;4.68;;
59263;SDS011;45030;42.720;23.344;2023-06-22T09:36:49;6.73;;;4.93;;
59263;SDS011;45030;42.720;23.344;2023-06-22T09:39:14;5.33;;;4.63;;
59263;SDS011;45030;42.720;23.344;2023-06-22T09:41:39;5.83;;;4.67;;
59263;SDS011;45030;42.720;23.344;2023-06-22T09:44:04;7.75;;;4.97;;
59263;SDS011;45030;42.720;23.344;2023-06-22T09:46:30;6.53;;;4.57;;
59263;SDS011;45030;42.720;23.344;2023-06-22T09:48:55;6.10;;;4.00;;
59263;SDS011;45030;42.720;23.344;2023-06-22T09:51:20;6.63;;;4.60;;
59263;SDS011;45030;42.720;23.344;2023-06-22T09:53:47;5.47;;;4.30;;
59263;SDS011;45030;42.720;23.344;2023-06-22T09:56:12;5.85;;;4.47;;
59263;SDS011;45030;42.720;23.344;2023-06-22T09:58:40;4.45;;;4.05;;
59263;SDS011;45030;42.720;23.344;2023-06-22T10:01:05;5.10;;;4.32;;
59263;SDS011;45030;42.720;23.344;2023-06-22T10:03:30;5.73;;;4.50;;
59263;SDS011;45030;42.720;23.344;2023-06-22T10:05:56;4.50;;;4.07;;
59263;SDS011;45030;42.720;23.344;2023-06-22T10:08:22;4.27;;;3.63;;
59263;SDS011;45030;42.720;23.344;2023-06-22T10:10:47;6.03;;;4.70;;
59263;SDS011;45030;42.720;23.344;2023-06-22T10:13:12;4.37;;;3.73;;
59263;SDS011;45030;42.720;23.344;2023-06-22T10:15:38;5.15;;;4.35;;
59263;SDS011;45030;42.720;23.344;2023-06-22T10:18:03;6.18;;;5.07;;
59263;SDS011;45030;42.720;23.344;2023-06-22T10:20:28;8.47;;;4.60;;
59263;SDS011;45030;42.720;23.344;2023-06-22T10:22:54;7.25;;;4.18;;
59263;SDS011;45030;42.720;23.344;2023-06-22T10:25:19;4.63;;;4.20;;
59263;SDS011;45030;42.720;23.344;2023-06-22T10:27:44;5.63;;;4.00;;
59263;SDS011;45030;42.720;23.344;2023-06-22T10:30:10;7.43;;;5.60;;
59263;SDS011;45030;42.720;23.344;2023-06-22T10:32:37;6.20;;;4.75;;
59263;SDS011;45030;42.720;23.344;2023-06-22T10:35:03;5.90;;;4.07;;
59263;SDS011;45030;42.720;23.344;2023-06-22T10:37:28;5.72;;;4.38;;
59263;SDS011;45030;42.720;23.344;2023-06-22T10:39:53;6.07;;;4.30;;
59263;SDS011;45030;42.720;23.344;2023-06-22T10:42:19;5.33;;;4.30;;
59263;SDS011;45030;42.720;23.344;2023-06-22T10:44:44;5.50;;;3.73;;
59263;SDS011;45030;42.720;23.344;2023-06-22T10:47:09;6.10;;;4.25;;
59263;SDS011;45030;42.720;23.344;2023-06-22T10:49:37;4.78;;;3.90;;
59263;SDS011;45030;42.720;23.344;2023-06-22T10:52:02;5.28;;;3.85;;
59263;SDS011;45030;42.720;23.344;2023-06-22T10:54:27;4.47;;;3.88;;
59263;SDS011;45030;42.720;23.344;2023-06-22T10:56:54;5.90;;;4.13;;
59263;SDS011;45030;42.720;23.344;2023-06-22T10:59:19;7.10;;;4.40;;
59263;SDS011;45030;42.720;23.344;2023-06-22T11:01:46;3.92;;;3.40;;
59263;SDS011;45030;42.720;23.344;2023-06-22T11:04:11;4.82;;;3.78;;
59263;SDS011;45030;42.720;23.344;2023-06-22T11:06:37;5.10;;;3.83;;
59263;SDS011;45030;42.720;23.344;2023-06-22T11:09:02;4.47;;;3.73;;
59263;SDS011;45030;42.720;23.344;2023-06-22T11:11:28;4.72;;;3.90;;
59263;SDS011;45030;42.720;23.344;2023-06-22T11:13:54;5.43;;;3.60;;
59263;SDS011;45030;42.720;23.344;2023-06-22T11:16:19;4.37;;;3.83;;
59263;SDS011;45030;42.720;23.344;2023-06-22T11:18:44;4.43;;;3.30;;
59263;SDS011;45030;42.720;23.344;2023-06-22T11:21:09;3.93;;;3.20;;
59263;SDS011;45030;42.720;23.344;2023-06-22T11:23:35;5.33;;;3.73;;
59263;SDS011;45030;42.720;23.344;2023-06-22T11:26:00;4.50;;;4.00;;
59263;SDS011;45030;42.720;23.344;2023-06-22T11:28:25;7.03;;;3.80;;
59263;SDS011;45030;42.720;23.344;2023-06-22T11:30:51;4.40;;;3.63;;
59263;SDS011;45030;42.720;23.344;2023-06-22T11:33:16;5.15;;;3.58;;
59263;SDS011;45030;42.720;23.344;2023-06-22T11:35:41;5.37;;;3.80;;
59263;SDS011;45030;42.720;23.344;2023-06-22T11:38:07;3.60;;;3.13;;
59263;SDS011;45030;42.720;23.344;2023-06-22T11:40:32;4.82;;;3.75;;
59263;SDS011;45030;42.720;23.344;2023-06-22T11:42:58;4.83;;;4.03;;
59263;SDS011;45030;42.720;23.344;2023-06-22T11:45:23;5.30;;;3.80;;
59263;SDS011;45030;42.720;23.344;2023-06-22T11:47:48;4.50;;;3.83;;
59263;SDS011;45030;42.720;23.344;2023-06-22T11:50:13;5.00;;;4.23;;
59263;SDS011;45030;42.720;23.344;2023-06-22T11:52:39;5.22;;;4.20;;
59263;SDS011;45030;42.720;23.344;2023-06-22T11:55:04;5.50;;;4.00;;
59263;SDS011;45030;42.720;23.344;2023-06-22T11:57:35;5.35;;;4.10;;
59263;SDS011;45030;42.720;23.344;2023-06-22T12:00:00;4.30;;;3.90;;
59263;SDS011;45030;42.720;23.344;2023-06-22T12:02:26;5.90;;;4.32;;
59263;SDS011;45030;42.720;23.344;2023-06-22T12:04:51;4.30;;;3.47;;
59263;SDS011;45030;42.720;23.344;2023-06-22T12:07:17;5.57;;;4.00;;
59263;SDS011;45030;42.720;23.344;2023-06-22T12:09:43;5.25;;;3.88;;
59263;SDS011;45030;42.720;23.344;2023-06-22T12:12:09;4.90;;;3.95;;
59263;SDS011;45030;42.720;23.344;2023-06-22T12:14:34;5.45;;;3.80;;
59263;SDS011;45030;42.720;23.344;2023-06-22T12:16:59;5.72;;;4.10;;
59263;SDS011;45030;42.720;23.344;2023-06-22T12:19:24;5.83;;;3.87;;
59263;SDS011;45030;42.720;23.344;2023-06-22T12:21:50;5.73;;;4.20;;
59263;SDS011;45030;42.720;23.344;2023-06-22T12:24:15;5.87;;;4.53;;
59263;SDS011;45030;42.720;23.344;2023-06-22T12:26:40;7.47;;;4.20;;
59263;SDS011;45030;42.720;23.344;2023-06-22T12:29:05;8.35;;;4.82;;
59263;SDS011;45030;42.720;23.344;2023-06-22T12:31:31;11.40;;;5.73;;
59263;SDS011;45030;42.720;23.344;2023-06-22T12:33:56;7.73;;;4.60;;
59263;SDS011;45030;42.720;23.344;2023-06-22T12:36:21;7.28;;;4.47;;
59263;SDS011;45030;42.720;23.344;2023-06-22T12:38:47;7.22;;;4.93;;
59263;SDS011;45030;42.720;23.344;2023-06-22T12:41:12;6.95;;;4.10;;
59263;SDS011;45030;42.720;23.344;2023-06-22T12:43:37;7.70;;;4.43;;
59263;SDS011;45030;42.720;23.344;2023-06-22T12:46:02;8.00;;;3.77;;
59263;SDS011;45030;42.720;23.344;2023-06-22T12:48:28;8.97;;;3.50;;
59263;SDS011;45030;42.720;23.344;2023-06-22T12:50:53;7.30;;;4.10;;
59263;SDS011;45030;42.720;23.344;2023-06-22T12:53:18;5.60;;;3.65;;
59263;SDS011;45030;42.720;23.344;2023-06-22T12:55:44;11.20;;;4.53;;
59263;SDS011;45030;42.720;23.344;2023-06-22T12:58:09;6.60;;;3.88;;
59263;SDS011;45030;42.720;23.344;2023-06-22T13:00:34;9.05;;;3.58;;
59263;SDS011;45030;42.720;23.344;2023-06-22T13:02:59;6.28;;;3.90;;
59263;SDS011;45030;42.720;23.344;2023-06-22T13:05:25;6.17;;;3.90;;
59263;SDS011;45030;42.720;23.344;2023-06-22T13:07:50;7.60;;;3.65;;
59263;SDS011;45030;42.720;23.344;2023-06-22T13:10:15;7.53;;;3.83;;
59263;SDS011;45030;42.720;23.344;2023-06-22T13:12:40;10.88;;;4.47;;
59263;SDS011;45030;42.720;23.344;2023-06-22T13:15:06;7.25;;;4.18;;
59263;SDS011;45030;42.720;23.344;2023-06-22T13:17:31;6.88;;;3.83;;
59263;SDS011;45030;42.720;23.344;2023-06-22T13:19:56;7.67;;;4.60;;
59263;SDS011;45030;42.720;23.344;2023-06-22T13:24:54;8.25;;;4.75;;
59263;SDS011;45030;42.720;23.344;2023-06-22T13:27:19;8.82;;;4.88;;
59263;SDS011;45030;42.720;23.344;2023-06-22T13:29:44;9.10;;;4.57;;
59263;SDS011;45030;42.720;23.344;2023-06-22T13:32:09;6.53;;;3.97;;
59263;SDS011;45030;42.720;23.344;2023-06-22T13:34:35;9.30;;;4.60;;
59263;SDS011;45030;42.720;23.344;2023-06-22T13:37:00;7.37;;;5.40;;
59263;SDS011;45030;42.720;23.344;2023-06-22T13:39:25;8.93;;;5.03;;
59263;SDS011;45030;42.720;23.344;2023-06-22T13:41:50;9.38;;;5.50;;
59263;SDS011;45030;42.720;23.344;2023-06-22T13:44:16;10.98;;;5.55;;
59263;SDS011;45030;42.720;23.344;2023-06-22T13:46:41;7.75;;;4.80;;
59263;SDS011;45030;42.720;23.344;2023-06-22T13:49:07;7.82;;;4.85;;
59263;SDS011;45030;42.720;23.344;2023-06-22T13:51:32;8.45;;;5.00;;
59263;SDS011;45030;42.720;23.344;2023-06-22T13:53:57;9.05;;;5.28;;
59263;SDS011;45030;42.720;23.344;2023-06-22T13:56:23;10.70;;;4.72;;
59263;SDS011;45030;42.720;23.344;2023-06-22T13:58:48;6.70;;;4.33;;
59263;SDS011;45030;42.720;23.344;2023-06-22T14:01:13;7.03;;;4.77;;
59263;SDS011;45030;42.720;23.344;2023-06-22T14:03:38;7.10;;;4.53;;
59263;SDS011;45030;42.720;23.344;2023-06-22T14:06:04;8.97;;;4.47;;
59263;SDS011;45030;42.720;23.344;2023-06-22T14:08:29;7.80;;;4.50;;
59263;SDS011;45030;42.720;23.344;2023-06-22T14:10:54;8.48;;;5.82;;
59263;SDS011;45030;42.720;23.344;2023-06-22T14:13:20;7.88;;;5.45;;
59263;SDS011;45030;42.720;23.344;2023-06-22T14:15:45;8.73;;;5.23;;
59263;SDS011;45030;42.720;23.344;2023-06-22T14:18:13;8.55;;;4.95;;
59263;SDS011;45030;42.720;23.344;2023-06-22T14:20:39;8.73;;;5.15;;
59263;SDS011;45030;42.720;23.344;2023-06-22T14:23:05;11.13;;;5.03;;
59263;SDS011;45030;42.720;23.344;2023-06-22T14:25:30;10.35;;;5.00;;
59263;SDS011;45030;42.720;23.344;2023-06-22T14:27:55;6.83;;;3.90;;
59263;SDS011;45030;42.720;23.344;2023-06-22T14:30:20;9.53;;;4.93;;
59263;SDS011;45030;42.720;23.344;2023-06-22T14:32:46;9.95;;;4.70;;